^^
Grace C. Lehan Memorial Weather Station Historical Data
Daily Summary for August 23, 2021 Units:  Both    English   Metric
Daily Weekly Monthly Yearly
  High: Low: Average:
Temperature: 34.5 °F /  1.4 °C 27.3 °F /  -2.6 °C 30.8 °F /  -0.7 °C
Dew Point: 19.2 °F /  -7.1 °C 4.1 °F /  -15.5 °C 12.8 °F /  -10.7 °C
Humidity: 58.8% 28.4% 48%
Wind Speed: 13.5mph /  21.7km/h - 4.4mph /  7.1km/h
Wind Gust: 25mph /  40.2km/h - -
Wind- - NW
Pressure: 30.17 in /  1021.6 hPa 29.83 in /  1010 hPa -
Precipitation: 0.00 in /  0 mm    
 
 
Tabular Data for August 23, 2021
Time Temperature Dew Point Pressure Wind Wind Speed Wind Gust Humidity Rainfall Rate (Hourly) solar
00:04 33.7 °F /  0.9 °C 19.2 °F /  -7.1 °C 29.83in /  1010hPa NW 10.4mph /  16.7km/h 23mph /  37km/h 55% 0.00in /  0mm 0 W/m2
00:09 33.6 °F /  0.9 °C 19.1 °F /  -7.2 °C 29.83in /  1010hPa NW 12.1mph /  19.5km/h 25mph /  40.2km/h 54.8% 0.00in /  0mm 0 W/m2
00:14 33.6 °F /  0.9 °C 18.9 °F /  -7.3 °C 29.84in /  1010.4hPa NW 9.7mph /  15.6km/h 25mph /  40.2km/h 54.4% 0.00in /  0mm 0 W/m2
00:19 33.6 °F /  0.9 °C 18.7 °F /  -7.4 °C 29.84in /  1010.4hPa WNW 12.4mph /  20km/h 25mph /  40.2km/h 54% 0.00in /  0mm 0 W/m2
00:24 33.6 °F /  0.9 °C 18.7 °F /  -7.4 °C 29.85in /  1010.7hPa NW 8.1mph /  13km/h 25mph /  40.2km/h 54% 0.00in /  0mm 0 W/m2
00:29 33.5 °F /  0.8 °C 18.9 °F /  -7.3 °C 29.85in /  1010.7hPa NW 6.3mph /  10.1km/h 25mph /  40.2km/h 54.5% 0.00in /  0mm 0 W/m2
00:34 33.4 °F /  0.8 °C 18.5 °F /  -7.5 °C 29.86in /  1011.1hPa WNW 10.2mph /  16.4km/h 25mph /  40.2km/h 53.8% 0.00in /  0mm 0 W/m2
00:39 33.4 °F /  0.8 °C 18.1 °F /  -7.7 °C 29.86in /  1011.1hPa WNW 8.5mph /  13.7km/h 23mph /  37km/h 53% 0.00in /  0mm 0 W/m2
00:44 33.3 °F /  0.7 °C 17.6 °F /  -8 °C 29.87in /  1011.4hPa WNW 8.8mph /  14.2km/h 24mph /  38.6km/h 52.1% 0.00in /  0mm 0 W/m2
00:49 33.1 °F /  0.6 °C 17.4 °F /  -8.1 °C 29.87in /  1011.4hPa NW 6.8mph /  10.9km/h 24mph /  38.6km/h 52% 0.00in /  0mm 0 W/m2
00:54 33 °F /  0.6 °C 17.3 °F /  -8.2 °C 29.86in /  1011.1hPa WNW 8.7mph /  14km/h 24mph /  38.6km/h 52% 0.00in /  0mm 0 W/m2
00:59 33 °F /  0.6 °C 17.3 °F /  -8.2 °C 29.86in /  1011.1hPa NW 9.1mph /  14.6km/h 24mph /  38.6km/h 52% 0.00in /  0mm 0 W/m2
01:04 32.9 °F /  0.5 °C 17.2 °F /  -8.2 °C 29.86in /  1011.1hPa WNW 7.5mph /  12.1km/h 24mph /  38.6km/h 52% 0.00in /  0mm 0 W/m2
01:09 32.8 °F /  0.4 °C 17.1 °F /  -8.3 °C 29.87in /  1011.4hPa WNW 4.9mph /  7.9km/h 15mph /  24.1km/h 52% 0.00in /  0mm 0 W/m2
01:14 32.6 °F /  0.3 °C 17 °F /  -8.3 °C 29.88in /  1011.7hPa WNW 5.3mph /  8.5km/h 18mph /  29km/h 52% 0.00in /  0mm 0 W/m2
01:19 32.5 °F /  0.3 °C 17 °F /  -8.3 °C 29.88in /  1011.7hPa WNW 4mph /  6.4km/h 18mph /  29km/h 52.3% 0.00in /  0mm 0 W/m2
01:24 32.4 °F /  0.2 °C 17.1 °F /  -8.3 °C 29.88in /  1011.7hPa WNW 6.6mph /  10.6km/h 18mph /  29km/h 52.6% 0.00in /  0mm 0 W/m2
01:29 32.4 °F /  0.2 °C 16.8 °F /  -8.4 °C 29.89in /  1012.1hPa NW 10.2mph /  16.4km/h 22mph /  35.4km/h 52% 0.00in /  0mm 0 W/m2
01:34 32.4 °F /  0.2 °C 16.7 °F /  -8.5 °C 29.89in /  1012.1hPa WNW 7.5mph /  12.1km/h 22mph /  35.4km/h 52% 0.00in /  0mm 0 W/m2
01:39 32.3 °F /  0.2 °C 16.8 °F /  -8.4 °C 29.89in /  1012.1hPa WNW 8.8mph /  14.2km/h 19mph /  30.6km/h 52.2% 0.00in /  0mm 0 W/m2
01:44 32.2 °F /  0.1 °C 17 °F /  -8.3 °C 29.89in /  1012.1hPa NW 7.2mph /  11.6km/h 19mph /  30.6km/h 53% 0.00in /  0mm 0 W/m2
01:49 32.2 °F /  0.1 °C 17 °F /  -8.3 °C 29.90in /  1012.4hPa WNW 6.6mph /  10.6km/h 19mph /  30.6km/h 53% 0.00in /  0mm 0 W/m2
01:54 32.1 °F /  0.1 °C 17 °F /  -8.3 °C 29.90in /  1012.4hPa WNW 4.8mph /  7.7km/h 19mph /  30.6km/h 53.2% 0.00in /  0mm 0 W/m2
01:59 31.9 °F /  -0.1 °C 17.2 °F /  -8.2 °C 29.90in /  1012.4hPa WNW 6.1mph /  9.8km/h 19mph /  30.6km/h 54% 0.00in /  0mm 0 W/m2
02:04 31.8 °F /  -0.1 °C 17.1 °F /  -8.3 °C 29.91in /  1012.8hPa WNW 7.5mph /  12.1km/h 19mph /  30.6km/h 54% 0.00in /  0mm 0 W/m2
02:09 31.7 °F /  -0.2 °C 17.1 °F /  -8.3 °C 29.91in /  1012.8hPa NW 5.8mph /  9.3km/h 16mph /  25.7km/h 54.2% 0.00in /  0mm 0 W/m2
02:14 31.6 °F /  -0.2 °C 17.5 °F /  -8.1 °C 29.91in /  1012.8hPa NW 8.2mph /  13.2km/h 20mph /  32.2km/h 55.4% 0.00in /  0mm 0 W/m2
02:19 31.6 °F /  -0.2 °C 17.7 °F /  -7.9 °C 29.91in /  1012.8hPa WNW 8mph /  12.9km/h 20mph /  32.2km/h 56% 0.00in /  0mm 0 W/m2
02:24 31.6 °F /  -0.2 °C 17.9 °F /  -7.8 °C 29.92in /  1013.1hPa NW 3.8mph /  6.1km/h 20mph /  32.2km/h 56.4% 0.00in /  0mm 0 W/m2
02:29 31.5 °F /  -0.3 °C 18 °F /  -7.8 °C 29.92in /  1013.1hPa NW 3.5mph /  5.6km/h 20mph /  32.2km/h 57% 0.00in /  0mm 0 W/m2
02:34 31.3 °F /  -0.4 °C 17.8 °F /  -7.9 °C 29.92in /  1013.1hPa NW 8.5mph /  13.7km/h 20mph /  32.2km/h 57% 0.00in /  0mm 0 W/m2
02:39 31.2 °F /  -0.4 °C 17.6 °F /  -8 °C 29.93in /  1013.4hPa NW 7.6mph /  12.2km/h 20mph /  32.2km/h 56.8% 0.00in /  0mm 0 W/m2
02:44 31.1 °F /  -0.5 °C 17.3 °F /  -8.2 °C 29.93in /  1013.4hPa NW 8.2mph /  13.2km/h 20mph /  32.2km/h 56.2% 0.00in /  0mm 0 W/m2
02:49 31 °F /  -0.6 °C 17.3 °F /  -8.2 °C 29.93in /  1013.4hPa NW 8.8mph /  14.2km/h 20mph /  32.2km/h 56.4% 0.00in /  0mm 0 W/m2
02:54 30.9 °F /  -0.6 °C 17.1 °F /  -8.3 °C 29.94in /  1013.8hPa WNW 9.4mph /  15.1km/h 20mph /  32.2km/h 56.2% 0.00in /  0mm 0 W/m2
02:59 30.8 °F /  -0.7 °C 17 °F /  -8.3 °C 29.93in /  1013.4hPa WNW 9.2mph /  14.8km/h 21mph /  33.8km/h 56% 0.00in /  0mm 0 W/m2
03:04 30.7 °F /  -0.7 °C 16.9 °F /  -8.4 °C 29.94in /  1013.8hPa NW 11.8mph /  19km/h 21mph /  33.8km/h 56% 0.00in /  0mm 0 W/m2
03:09 30.6 °F /  -0.8 °C 16.4 °F /  -8.7 °C 29.94in /  1013.8hPa NW 9.3mph /  15km/h 21mph /  33.8km/h 55% 0.00in /  0mm 0 W/m2
03:14 30.5 °F /  -0.8 °C 16.3 °F /  -8.7 °C 29.94in /  1013.8hPa WNW 4.7mph /  7.6km/h 21mph /  33.8km/h 55.1% 0.00in /  0mm 0 W/m2
03:19 30.3 °F /  -0.9 °C 16.2 °F /  -8.8 °C 29.94in /  1013.8hPa WNW 4.5mph /  7.2km/h 21mph /  33.8km/h 55.3% 0.00in /  0mm 0 W/m2
03:24 30.2 °F /  -1 °C 16.3 °F /  -8.7 °C 29.94in /  1013.8hPa NW 6.4mph /  10.3km/h 21mph /  33.8km/h 55.6% 0.00in /  0mm 0 W/m2
03:29 30.1 °F /  -1.1 °C 16.1 °F /  -8.8 °C 29.94in /  1013.8hPa NW 3.9mph /  6.3km/h 21mph /  33.8km/h 55.3% 0.00in /  0mm 0 W/m2
03:34 30 °F /  -1.1 °C 15.8 °F /  -9 °C 29.94in /  1013.8hPa NW 5.5mph /  8.9km/h 21mph /  33.8km/h 55% 0.00in /  0mm 0 W/m2
03:39 29.9 °F /  -1.2 °C 15.7 °F /  -9.1 °C 29.94in /  1013.8hPa WNW 4.7mph /  7.6km/h 17mph /  27.4km/h 55% 0.00in /  0mm 0 W/m2
03:44 29.8 °F /  -1.2 °C 15.7 °F /  -9.1 °C 29.95in /  1014.1hPa NW 6.1mph /  9.8km/h 17mph /  27.4km/h 55% 0.00in /  0mm 0 W/m2
03:49 29.8 °F /  -1.2 °C 15.6 °F /  -9.1 °C 29.95in /  1014.1hPa NW 4.4mph /  7.1km/h 17mph /  27.4km/h 55% 0.00in /  0mm 0 W/m2
03:54 29.7 °F /  -1.3 °C 15.5 °F /  -9.2 °C 29.95in /  1014.1hPa WNW 1.2mph /  1.9km/h 17mph /  27.4km/h 55% 0.00in /  0mm 0 W/m2
03:59 29.6 °F /  -1.3 °C 15.5 °F /  -9.2 °C 29.95in /  1014.1hPa WNW 7.8mph /  12.6km/h 17mph /  27.4km/h 55.2% 0.00in /  0mm 0 W/m2
04:00 29.6 °F /  -1.3 °C 15.4 °F /  -9.2 °C 29.95in /  1014.1hPa NW 7mph /  11.3km/h 17mph /  27.4km/h 55% 0.00in /  0mm 0 W/m2
04:09 29.5 °F /  -1.4 °C 15.3 °F /  -9.3 °C 29.96in /  1014.4hPa NW 8.5mph /  13.7km/h 20mph /  32.2km/h 55% 0.00in /  0mm 0 W/m2
04:14 29.5 °F /  -1.4 °C 15.3 °F /  -9.3 °C 29.96in /  1014.4hPa NW 13.5mph /  21.7km/h 24mph /  38.6km/h 55% 0.00in /  0mm 0 W/m2
04:19 29.4 °F /  -1.4 °C 15.3 °F /  -9.3 °C 29.96in /  1014.4hPa NW 10.7mph /  17.2km/h 24mph /  38.6km/h 55% 0.00in /  0mm 0 W/m2
04:24 29.4 °F /  -1.4 °C 15.2 °F /  -9.3 °C 29.96in /  1014.4hPa NW 10mph /  16.1km/h 24mph /  38.6km/h 55% 0.00in /  0mm 0 W/m2
04:29 29.3 °F /  -1.5 °C 15.2 °F /  -9.3 °C 29.96in /  1014.4hPa NW 8.2mph /  13.2km/h 24mph /  38.6km/h 55% 0.00in /  0mm 0 W/m2
04:34 29.2 °F /  -1.6 °C 15.3 °F /  -9.3 °C 29.96in /  1014.4hPa NW 8.6mph /  13.8km/h 24mph /  38.6km/h 55.5% 0.00in /  0mm 0 W/m2
04:39 29.1 °F /  -1.6 °C 15.4 °F /  -9.2 °C 29.96in /  1014.4hPa WNW 5.3mph /  8.5km/h 16mph /  25.7km/h 56% 0.00in /  0mm 0 W/m2
04:44 29 °F /  -1.7 °C 15.3 °F /  -9.3 °C 29.96in /  1014.4hPa NW 8.4mph /  13.5km/h 17mph /  27.4km/h 56% 0.00in /  0mm 0 W/m2
04:49 29 °F /  -1.7 °C 15.2 °F /  -9.3 °C 29.96in /  1014.4hPa NW 5.6mph /  9km/h 17mph /  27.4km/h 56% 0.00in /  0mm 0 W/m2
04:54 28.9 °F /  -1.7 °C 15.2 °F /  -9.3 °C 29.97in /  1014.8hPa WNW 6.5mph /  10.5km/h 17mph /  27.4km/h 56% 0.00in /  0mm 0 W/m2
04:59 28.8 °F /  -1.8 °C 15.1 °F /  -9.4 °C 29.97in /  1014.8hPa WNW 6.4mph /  10.3km/h 17mph /  27.4km/h 56% 0.00in /  0mm 0 W/m2
05:04 28.8 °F /  -1.8 °C 15.2 °F /  -9.3 °C 29.97in /  1014.8hPa NW 2.6mph /  4.2km/h 17mph /  27.4km/h 56.2% 0.00in /  0mm 0 W/m2
05:09 28.7 °F /  -1.8 °C 15.4 °F /  -9.2 °C 29.97in /  1014.8hPa NW 7.3mph /  11.7km/h 16mph /  25.7km/h 57% 0.00in /  0mm 0 W/m2
05:14 28.6 °F /  -1.9 °C 15.3 °F /  -9.3 °C 29.98in /  1015.1hPa NW 4.1mph /  6.6km/h 16mph /  25.7km/h 57% 0.00in /  0mm 0 W/m2
05:19 28.5 °F /  -1.9 °C 15.2 °F /  -9.3 °C 29.99in /  1015.5hPa NW 4mph /  6.4km/h 16mph /  25.7km/h 57% 0.00in /  0mm 0 W/m2
05:24 28.5 °F /  -1.9 °C 15.6 °F /  -9.1 °C 29.99in /  1015.5hPa WNW 2.8mph /  4.5km/h 16mph /  25.7km/h 58% 0.00in /  0mm 0 W/m2
05:29 28.4 °F /  -2 °C 15.5 °F /  -9.2 °C 29.99in /  1015.5hPa NW 3.6mph /  5.8km/h 16mph /  25.7km/h 58% 0.00in /  0mm 0 W/m2
05:34 28.3 °F /  -2.1 °C 15.5 °F /  -9.2 °C 30.00in /  1015.8hPa NW 6mph /  9.7km/h 16mph /  25.7km/h 58% 0.00in /  0mm 0 W/m2
05:39 28.3 °F /  -2.1 °C 15.4 °F /  -9.2 °C 30.00in /  1015.8hPa WNW 2.6mph /  4.2km/h 14mph /  22.5km/h 58% 0.00in /  0mm 0 W/m2
05:44 28.3 °F /  -2.1 °C 15.4 °F /  -9.2 °C 30.01in /  1016.1hPa WNW 0.9mph /  1.4km/h 14mph /  22.5km/h 58% 0.00in /  0mm 0 W/m2
05:49 28.2 °F /  -2.1 °C 15.3 °F /  -9.3 °C 30.01in /  1016.1hPa NW 1.8mph /  2.9km/h 14mph /  22.5km/h 58% 0.00in /  0mm 0 W/m2
05:54 28.1 °F /  -2.2 °C 15.3 °F /  -9.3 °C 30.02in /  1016.5hPa WNW 5.2mph /  8.4km/h 14mph /  22.5km/h 58.2% 0.00in /  0mm 0 W/m2
05:59 28.1 °F /  -2.2 °C 15.2 °F /  -9.3 °C 30.02in /  1016.5hPa WNW 5.8mph /  9.3km/h 14mph /  22.5km/h 58% 0.00in /  0mm 0 W/m2
06:04 28.1 °F /  -2.2 °C 15.4 °F /  -9.2 °C 30.03in /  1016.8hPa WNW 5.1mph /  8.2km/h 14mph /  22.5km/h 58.5% 0.00in /  0mm 0 W/m2
06:09 28.1 °F /  -2.2 °C 15.5 °F /  -9.2 °C 30.03in /  1016.8hPa NW 3.7mph /  6km/h 14mph /  22.5km/h 58.6% 0.00in /  0mm 0 W/m2
06:14 28.1 °F /  -2.2 °C 15.5 °F /  -9.2 °C 30.04in /  1017.2hPa NW 6.4mph /  10.3km/h 14mph /  22.5km/h 58.8% 0.00in /  0mm 0 W/m2
06:19 28 °F /  -2.2 °C 15.2 °F /  -9.3 °C 30.04in /  1017.2hPa NW 6.3mph /  10.1km/h 16mph /  25.7km/h 58.1% 0.00in /  0mm 0 W/m2
06:24 28 °F /  -2.2 °C 15.2 °F /  -9.3 °C 30.04in /  1017.2hPa NW 6mph /  9.7km/h 16mph /  25.7km/h 58% 0.00in /  0mm 0 W/m2
06:29 28 °F /  -2.2 °C 15.2 °F /  -9.3 °C 30.05in /  1017.5hPa WNW 5.4mph /  8.7km/h 16mph /  25.7km/h 58% 0.00in /  0mm 0 W/m2
06:34 27.9 °F /  -2.3 °C 15.1 °F /  -9.4 °C 30.05in /  1017.5hPa WNW 3.3mph /  5.3km/h 16mph /  25.7km/h 58% 0.00in /  0mm 0 W/m2
06:39 27.9 °F /  -2.3 °C 15.1 °F /  -9.4 °C 30.05in /  1017.5hPa WNW 6.1mph /  9.8km/h 17mph /  27.4km/h 58% 0.00in /  0mm 0 W/m2
06:44 27.8 °F /  -2.3 °C 14.7 °F /  -9.6 °C 30.06in /  1017.8hPa WNW 7.3mph /  11.7km/h 17mph /  27.4km/h 57.2% 0.00in /  0mm 0 W/m2
06:49 27.8 °F /  -2.3 °C 14.6 °F /  -9.7 °C 30.06in /  1017.8hPa WNW 8.2mph /  13.2km/h 17mph /  27.4km/h 57% 0.00in /  0mm 0 W/m2
06:54 27.8 °F /  -2.3 °C 14.6 °F /  -9.7 °C 30.06in /  1017.8hPa WNW 7.8mph /  12.6km/h 17mph /  27.4km/h 57% 0.00in /  0mm 0 W/m2
06:59 27.8 °F /  -2.3 °C 14.5 °F /  -9.7 °C 30.06in /  1017.8hPa WNW 5.7mph /  9.2km/h 18mph /  29km/h 57% 0.00in /  0mm 0 W/m2
07:04 27.7 °F /  -2.4 °C 14.5 °F /  -9.7 °C 30.06in /  1017.8hPa NW 7.9mph /  12.7km/h 18mph /  29km/h 57% 0.00in /  0mm 0 W/m2
07:09 27.6 °F /  -2.4 °C 14.4 °F /  -9.8 °C 30.06in /  1017.8hPa NW 6.4mph /  10.3km/h 16mph /  25.7km/h 57% 0.00in /  0mm 0 W/m2
07:14 27.6 °F /  -2.4 °C 14.1 °F /  -9.9 °C 30.06in /  1017.8hPa NW 9.3mph /  15km/h 16mph /  25.7km/h 56.4% 0.00in /  0mm 5 W/m2
07:19 27.5 °F /  -2.5 °C 13.9 °F /  -10.1 °C 30.06in /  1017.8hPa NW 4.9mph /  7.9km/h 16mph /  25.7km/h 56% 0.00in /  0mm 5 W/m2
07:24 27.5 °F /  -2.5 °C 14.3 °F /  -9.8 °C 30.06in /  1017.8hPa WNW 6mph /  9.7km/h 16mph /  25.7km/h 57.1% 0.00in /  0mm 7 W/m2
07:29 27.4 °F /  -2.6 °C 13.8 °F /  -10.1 °C 30.06in /  1017.8hPa WNW 8.1mph /  13km/h 16mph /  25.7km/h 56% 0.00in /  0mm 11 W/m2
07:34 27.3 °F /  -2.6 °C 13.6 °F /  -10.2 °C 30.06in /  1017.8hPa NW 7.5mph /  12.1km/h 16mph /  25.7km/h 55.8% 0.00in /  0mm 14 W/m2
07:39 27.3 °F /  -2.6 °C 13.3 °F /  -10.4 °C 30.07in /  1018.2hPa WNW 6.1mph /  9.8km/h 14mph /  22.5km/h 55% 0.00in /  0mm 23 W/m2
07:44 27.3 °F /  -2.6 °C 13.3 °F /  -10.4 °C 30.06in /  1017.8hPa NW 6.6mph /  10.6km/h 17mph /  27.4km/h 55.2% 0.00in /  0mm 46 W/m2
07:49 27.4 °F /  -2.6 °C 13.4 °F /  -10.3 °C 30.07in /  1018.2hPa NW 4.8mph /  7.7km/h 17mph /  27.4km/h 55% 0.00in /  0mm 53 W/m2
07:54 27.7 °F /  -2.4 °C 13.1 °F /  -10.5 °C 30.07in /  1018.2hPa NW 6.4mph /  10.3km/h 17mph /  27.4km/h 53.7% 0.00in /  0mm 63 W/m2
07:59 28.1 °F /  -2.2 °C 12.8 °F /  -10.7 °C 30.08in /  1018.5hPa NW 3.9mph /  6.3km/h 17mph /  27.4km/h 52.1% 0.00in /  0mm 77 W/m2
08:00 28.3 °F /  -2.1 °C 12.9 °F /  -10.6 °C 30.08in /  1018.5hPa NW 7mph /  11.3km/h 17mph /  27.4km/h 52% 0.00in /  0mm 77 W/m2
08:09 28.8 °F /  -1.8 °C 12.8 °F /  -10.7 °C 30.09in /  1018.8hPa WNW 8.9mph /  14.3km/h 20mph /  32.2km/h 50.6% 0.00in /  0mm 102 W/m2
08:14 29 °F /  -1.7 °C 12.4 °F /  -10.9 °C 30.09in /  1018.8hPa WNW 5.5mph /  8.9km/h 20mph /  32.2km/h 49.4% 0.00in /  0mm 121 W/m2
08:19 29.2 °F /  -1.6 °C 12.4 °F /  -10.9 °C 30.09in /  1018.8hPa NW 6.4mph /  10.3km/h 20mph /  32.2km/h 49% 0.00in /  0mm 141 W/m2
08:24 29.4 °F /  -1.4 °C 12 °F /  -11.1 °C 30.09in /  1018.8hPa NW 7.2mph /  11.6km/h 20mph /  32.2km/h 47.7% 0.00in /  0mm 156 W/m2
08:29 29.6 °F /  -1.3 °C 11.8 °F /  -11.2 °C 30.10in /  1019.2hPa NW 5.3mph /  8.5km/h 20mph /  32.2km/h 47% 0.00in /  0mm 163 W/m2
08:34 29.8 °F /  -1.2 °C 12 °F /  -11.1 °C 30.10in /  1019.2hPa NW 3.7mph /  6km/h 20mph /  32.2km/h 46.8% 0.00in /  0mm 146 W/m2
08:39 30.1 °F /  -1.1 °C 12 °F /  -11.1 °C 30.10in /  1019.2hPa NW 5.2mph /  8.4km/h 14mph /  22.5km/h 46.5% 0.00in /  0mm 186 W/m2
08:44 30.2 °F /  -1 °C 11.5 °F /  -11.4 °C 30.10in /  1019.2hPa NW 3.3mph /  5.3km/h 14mph /  22.5km/h 45.2% 0.00in /  0mm 179 W/m2
08:49 30.2 °F /  -1 °C 11 °F /  -11.7 °C 30.11in /  1019.5hPa NW 8.3mph /  13.4km/h 14mph /  22.5km/h 44.2% 0.00in /  0mm 174 W/m2
08:54 30.1 °F /  -1.1 °C 10.4 °F /  -12 °C 30.11in /  1019.5hPa NW 4.9mph /  7.9km/h 14mph /  22.5km/h 43.2% 0.00in /  0mm 190 W/m2
08:59 30 °F /  -1.1 °C 10.4 °F /  -12 °C 30.11in /  1019.5hPa NW 6.1mph /  9.8km/h 15mph /  24.1km/h 43.4% 0.00in /  0mm 199 W/m2
09:04 30.1 °F /  -1.1 °C 10.6 °F /  -11.9 °C 30.12in /  1019.9hPa NW 2.9mph /  4.7km/h 15mph /  24.1km/h 43.5% 0.00in /  0mm 211 W/m2
09:09 30.4 °F /  -0.9 °C 10.4 °F /  -12 °C 30.12in /  1019.9hPa NW 4.8mph /  7.7km/h 13mph /  20.9km/h 42.6% 0.00in /  0mm 137 W/m2
09:14 30.4 °F /  -0.9 °C 10 °F /  -12.2 °C 30.12in /  1019.9hPa NW 5.1mph /  8.2km/h 13mph /  20.9km/h 41.8% 0.00in /  0mm 179 W/m2
09:19 30.3 °F /  -0.9 °C 10 °F /  -12.2 °C 30.13in /  1020.2hPa NW 3.1mph /  5km/h 13mph /  20.9km/h 42% 0.00in /  0mm 179 W/m2
09:24 30.3 °F /  -0.9 °C 9.8 °F /  -12.3 °C 30.13in /  1020.2hPa NW 2mph /  3.2km/h 13mph /  20.9km/h 41.6% 0.00in /  0mm 162 W/m2
09:29 30.4 °F /  -0.9 °C 10.1 °F /  -12.2 °C 30.13in /  1020.2hPa NNW 2.4mph /  3.9km/h 13mph /  20.9km/h 42% 0.00in /  0mm 142 W/m2
09:34 30.6 °F /  -0.8 °C 10.2 °F /  -12.1 °C 30.13in /  1020.2hPa WNW 3.3mph /  5.3km/h 13mph /  20.9km/h 42% 0.00in /  0mm 171 W/m2
09:39 30.5 °F /  -0.8 °C 9.6 °F /  -12.4 °C 30.14in /  1020.5hPa NW 5.6mph /  9km/h 12mph /  19.3km/h 41% 0.00in /  0mm 72 W/m2
09:44 30.3 °F /  -0.9 °C 9.3 °F /  -12.6 °C 30.14in /  1020.5hPa WNW 8.3mph /  13.4km/h 17mph /  27.4km/h 40.6% 0.00in /  0mm 165 W/m2
09:49 30.2 °F /  -1 °C 8.8 °F /  -12.9 °C 30.14in /  1020.5hPa NW 7.1mph /  11.4km/h 17mph /  27.4km/h 40% 0.00in /  0mm 105 W/m2
09:54 30.1 °F /  -1.1 °C 8.7 °F /  -12.9 °C 30.14in /  1020.5hPa NW 4.8mph /  7.7km/h 17mph /  27.4km/h 40% 0.00in /  0mm 128 W/m2
09:59 30.2 °F /  -1 °C 9.1 °F /  -12.7 °C 30.13in /  1020.2hPa NNW 1.4mph /  2.3km/h 17mph /  27.4km/h 40.5% 0.00in /  0mm 121 W/m2
10:04 30.5 °F /  -0.8 °C 9.7 °F /  -12.4 °C 30.13in /  1020.2hPa NNW 1.2mph /  1.9km/h 17mph /  27.4km/h 41.2% 0.00in /  0mm 195 W/m2
10:09 30.9 °F /  -0.6 °C 9.7 °F /  -12.4 °C 30.14in /  1020.5hPa NNW 6.4mph /  10.3km/h 13mph /  20.9km/h 40.5% 0.00in /  0mm 200 W/m2
10:14 31.3 °F /  -0.4 °C 9.6 °F /  -12.4 °C 30.14in /  1020.5hPa NW 3.6mph /  5.8km/h 14mph /  22.5km/h 39.7% 0.00in /  0mm 283 W/m2
10:19 31.8 °F /  -0.1 °C 10.1 °F /  -12.2 °C 30.14in /  1020.5hPa NW 5.5mph /  8.9km/h 16mph /  25.7km/h 39.7% 0.00in /  0mm 336 W/m2
10:24 32.4 °F /  0.2 °C 9.8 °F /  -12.3 °C 30.14in /  1020.5hPa NW 5.7mph /  9.2km/h 16mph /  25.7km/h 38.3% 0.00in /  0mm 422 W/m2
10:29 33 °F /  0.6 °C 10.1 °F /  -12.2 °C 30.14in /  1020.5hPa NW 4.1mph /  6.6km/h 16mph /  25.7km/h 37.8% 0.00in /  0mm 429 W/m2
10:34 33.6 °F /  0.9 °C 10.3 °F /  -12.1 °C 30.14in /  1020.5hPa NW 2.5mph /  4km/h 16mph /  25.7km/h 37.4% 0.00in /  0mm 436 W/m2
10:39 34.1 °F /  1.2 °C 10.1 °F /  -12.2 °C 30.14in /  1020.5hPa NW 4.4mph /  7.1km/h 13mph /  20.9km/h 36.2% 0.00in /  0mm 436 W/m2
10:44 34.3 °F /  1.3 °C 9.5 °F /  -12.5 °C 30.13in /  1020.2hPa NW 5.7mph /  9.2km/h 14mph /  22.5km/h 35.1% 0.00in /  0mm 364 W/m2
10:49 34.2 °F /  1.2 °C 9.4 °F /  -12.6 °C 30.13in /  1020.2hPa NW 5.4mph /  8.7km/h 14mph /  22.5km/h 35% 0.00in /  0mm 330 W/m2
10:54 34.1 °F /  1.2 °C 9.2 °F /  -12.7 °C 30.13in /  1020.2hPa WNW 4.7mph /  7.6km/h 16mph /  25.7km/h 34.8% 0.00in /  0mm 176 W/m2
10:59 34 °F /  1.1 °C 8.6 °F /  -13 °C 30.13in /  1020.2hPa NW 6.9mph /  11.1km/h 16mph /  25.7km/h 34% 0.00in /  0mm 107 W/m2
11:04 33.8 °F /  1 °C 8.4 °F /  -13.1 °C 30.13in /  1020.2hPa NW 5.4mph /  8.7km/h 17mph /  27.4km/h 34% 0.00in /  0mm 148 W/m2
11:09 33.7 °F /  0.9 °C 8.5 °F /  -13.1 °C 30.13in /  1020.2hPa NW 2.5mph /  4km/h 17mph /  27.4km/h 34.3% 0.00in /  0mm 160 W/m2
11:14 33.8 °F /  1 °C 9.2 °F /  -12.7 °C 30.13in /  1020.2hPa NNW 2.6mph /  4.2km/h 17mph /  27.4km/h 35.2% 0.00in /  0mm 62 W/m2
11:19 34 °F /  1.1 °C 9.3 °F /  -12.6 °C 30.13in /  1020.2hPa NW 3.4mph /  5.5km/h 17mph /  27.4km/h 35.1% 0.00in /  0mm 74 W/m2
11:24 33.9 °F /  1.1 °C 8.1 °F /  -13.3 °C 30.13in /  1020.2hPa NW 7.3mph /  11.7km/h 17mph /  27.4km/h 33.3% 0.00in /  0mm 88 W/m2
11:29 33.8 °F /  1 °C 7.7 °F /  -13.5 °C 30.12in /  1019.9hPa NW 4.2mph /  6.8km/h 17mph /  27.4km/h 33% 0.00in /  0mm 72 W/m2
11:34 33.7 °F /  0.9 °C 7.7 °F /  -13.5 °C 30.12in /  1019.9hPa NW 4.4mph /  7.1km/h 17mph /  27.4km/h 33.2% 0.00in /  0mm 197 W/m2
11:39 33.7 °F /  0.9 °C 7.9 °F /  -13.4 °C 30.13in /  1020.2hPa WNW 3.3mph /  5.3km/h 13mph /  20.9km/h 33.4% 0.00in /  0mm 262 W/m2
11:44 33.8 °F /  1 °C 7.5 °F /  -13.6 °C 30.13in /  1020.2hPa WNW 8.3mph /  13.4km/h 16mph /  25.7km/h 32.7% 0.00in /  0mm 239 W/m2
11:49 33.7 °F /  0.9 °C 7.5 °F /  -13.6 °C 30.12in /  1019.9hPa NW 6.3mph /  10.1km/h 16mph /  25.7km/h 32.7% 0.00in /  0mm 171 W/m2
11:54 33.8 °F /  1 °C 7.1 °F /  -13.8 °C 30.12in /  1019.9hPa NW 4.4mph /  7.1km/h 16mph /  25.7km/h 32.1% 0.00in /  0mm 86 W/m2
11:59 33.9 °F /  1.1 °C 7.5 °F /  -13.6 °C 30.12in /  1019.9hPa WNW 8.7mph /  14km/h 19mph /  30.6km/h 32.6% 0.00in /  0mm 330 W/m2
12:00 33.9 °F /  1.1 °C 6.5 °F /  -14.2 °C 30.12in /  1019.9hPa WNW 10mph /  16.1km/h 19mph /  30.6km/h 31% 0.00in /  0mm 330 W/m2
12:09 33.9 °F /  1.1 °C 5.9 °F /  -14.5 °C 30.12in /  1019.9hPa WNW 10.5mph /  16.9km/h 21mph /  33.8km/h 30.3% 0.00in /  0mm 343 W/m2
12:14 33.8 °F /  1 °C 4.9 °F /  -15.1 °C 30.12in /  1019.9hPa NW 11.1mph /  17.9km/h 21mph /  33.8km/h 29% 0.00in /  0mm 327 W/m2
12:19 33.6 °F /  0.9 °C 4.6 °F /  -15.2 °C 30.12in /  1019.9hPa WNW 9.8mph /  15.8km/h 21mph /  33.8km/h 28.8% 0.00in /  0mm 253 W/m2
12:24 33.3 °F /  0.7 °C 4.1 °F /  -15.5 °C 30.11in /  1019.5hPa WNW 10.7mph /  17.2km/h 21mph /  33.8km/h 28.4% 0.00in /  0mm 109 W/m2
12:29 33.1 °F /  0.6 °C 4.4 °F /  -15.3 °C 30.11in /  1019.5hPa NW 6.8mph /  10.9km/h 21mph /  33.8km/h 29.1% 0.00in /  0mm 114 W/m2
12:34 33.3 °F /  0.7 °C 4.5 °F /  -15.3 °C 30.11in /  1019.5hPa WNW 8.7mph /  14km/h 21mph /  33.8km/h 29% 0.00in /  0mm 216 W/m2
12:39 33.5 °F /  0.8 °C 4.5 °F /  -15.3 °C 30.11in /  1019.5hPa WNW 8.8mph /  14.2km/h 18mph /  29km/h 28.8% 0.00in /  0mm 329 W/m2
12:44 33.8 °F /  1 °C 5.1 °F /  -14.9 °C 30.11in /  1019.5hPa WNW 3.2mph /  5.1km/h 18mph /  29km/h 29.3% 0.00in /  0mm 323 W/m2
12:49 34.3 °F /  1.3 °C 5.6 °F /  -14.7 °C 30.11in /  1019.5hPa WNW 6.8mph /  10.9km/h 18mph /  29km/h 29.3% 0.00in /  0mm 287 W/m2
12:54 34.5 °F /  1.4 °C 5.5 °F /  -14.7 °C 30.11in /  1019.5hPa NW 5.1mph /  8.2km/h 18mph /  29km/h 29% 0.00in /  0mm 172 W/m2
12:59 34.5 °F /  1.4 °C 6.5 °F /  -14.2 °C 30.11in /  1019.5hPa WNW 9mph /  14.5km/h 22mph /  35.4km/h 30.3% 0.00in /  0mm 155 W/m2
13:04 34.2 °F /  1.2 °C 6.3 °F /  -14.3 °C 30.11in /  1019.5hPa WNW 11.4mph /  18.3km/h 22mph /  35.4km/h 30.5% 0.00in /  0mm 165 W/m2
13:09 33.7 °F /  0.9 °C 6.1 °F /  -14.4 °C 30.11in /  1019.5hPa NW 12mph /  19.3km/h 22mph /  35.4km/h 30.7% 0.00in /  0mm 181 W/m2
13:14 33.4 °F /  0.8 °C 6.1 °F /  -14.4 °C 30.12in /  1019.9hPa NW 4.9mph /  7.9km/h 22mph /  35.4km/h 31.1% 0.00in /  0mm 155 W/m2
13:19 33.3 °F /  0.7 °C 6.6 °F /  -14.1 °C 30.12in /  1019.9hPa NW 5.3mph /  8.5km/h 22mph /  35.4km/h 32% 0.00in /  0mm 139 W/m2
13:24 33.2 °F /  0.7 °C 6.5 °F /  -14.2 °C 30.11in /  1019.5hPa NW 5.6mph /  9km/h 22mph /  35.4km/h 32% 0.00in /  0mm 128 W/m2
13:29 33 °F /  0.6 °C 6.4 °F /  -14.2 °C 30.12in /  1019.9hPa NW 5.5mph /  8.9km/h 22mph /  35.4km/h 32% 0.00in /  0mm 125 W/m2
13:34 32.9 °F /  0.5 °C 6.3 °F /  -14.3 °C 30.12in /  1019.9hPa WNW 7.8mph /  12.6km/h 22mph /  35.4km/h 32% 0.00in /  0mm 135 W/m2
13:39 32.8 °F /  0.4 °C 6.5 °F /  -14.2 °C 30.12in /  1019.9hPa WNW 5.1mph /  8.2km/h 14mph /  22.5km/h 32.4% 0.00in /  0mm 141 W/m2
13:44 32.8 °F /  0.4 °C 6.9 °F /  -13.9 °C 30.12in /  1019.9hPa WNW 5.5mph /  8.9km/h 15mph /  24.1km/h 33% 0.00in /  0mm 146 W/m2
13:49 32.9 °F /  0.5 °C 7.3 °F /  -13.7 °C 30.12in /  1019.9hPa NW 8.8mph /  14.2km/h 19mph /  30.6km/h 33.5% 0.00in /  0mm 146 W/m2
13:54 33 °F /  0.6 °C 7.6 °F /  -13.6 °C 30.12in /  1019.9hPa NW 5.3mph /  8.5km/h 19mph /  30.6km/h 33.9% 0.00in /  0mm 139 W/m2
13:59 33 °F /  0.6 °C 8.4 °F /  -13.1 °C 30.12in /  1019.9hPa NW 4.8mph /  7.7km/h 19mph /  30.6km/h 35% 0.00in /  0mm 114 W/m2
14:04 33 °F /  0.6 °C 8.5 °F /  -13.1 °C 30.12in /  1019.9hPa WNW 4.3mph /  6.9km/h 19mph /  30.6km/h 35.3% 0.00in /  0mm 171 W/m2
14:09 33.1 °F /  0.6 °C 9.8 °F /  -12.3 °C 30.12in /  1019.9hPa NW 6.7mph /  10.8km/h 14mph /  22.5km/h 37.2% 0.00in /  0mm 142 W/m2
14:14 33.3 °F /  0.7 °C 10.8 °F /  -11.8 °C 30.12in /  1019.9hPa NW 3.2mph /  5.1km/h 14mph /  22.5km/h 38.7% 0.00in /  0mm 137 W/m2
14:19 33.5 °F /  0.8 °C 11.9 °F /  -11.2 °C 30.12in /  1019.9hPa NW 4.7mph /  7.6km/h 14mph /  22.5km/h 40.3% 0.00in /  0mm 116 W/m2
14:24 33.6 °F /  0.9 °C 10.9 °F /  -11.7 °C 30.12in /  1019.9hPa NW 2.8mph /  4.5km/h 14mph /  22.5km/h 38.3% 0.00in /  0mm 105 W/m2
14:29 33.7 °F /  0.9 °C 10.8 °F /  -11.8 °C 30.13in /  1020.2hPa NW 4.9mph /  7.9km/h 14mph /  22.5km/h 38% 0.00in /  0mm 90 W/m2
14:34 33.6 °F /  0.9 °C 10.5 °F /  -11.9 °C 30.12in /  1019.9hPa WNW 4.9mph /  7.9km/h 14mph /  22.5km/h 37.5% 0.00in /  0mm 79 W/m2
14:39 33.5 °F /  0.8 °C 10.5 °F /  -11.9 °C 30.12in /  1019.9hPa NNW 4.3mph /  6.9km/h 13mph /  20.9km/h 37.8% 0.00in /  0mm 83 W/m2
14:44 33.5 °F /  0.8 °C 10.6 °F /  -11.9 °C 30.12in /  1019.9hPa NW 5.8mph /  9.3km/h 14mph /  22.5km/h 38% 0.00in /  0mm 58 W/m2
14:49 33.5 °F /  0.8 °C 10.6 °F /  -11.9 °C 30.12in /  1019.9hPa WNW 3.4mph /  5.5km/h 14mph /  22.5km/h 38% 0.00in /  0mm 44 W/m2
14:54 33.5 °F /  0.8 °C 11.1 °F /  -11.6 °C 30.12in /  1019.9hPa WNW 3.7mph /  6km/h 14mph /  22.5km/h 38.8% 0.00in /  0mm 40 W/m2
14:59 33.6 °F /  0.9 °C 10.7 °F /  -11.8 °C 30.12in /  1019.9hPa WNW 2.7mph /  4.3km/h 14mph /  22.5km/h 38% 0.00in /  0mm 30 W/m2
15:04 33.6 °F /  0.9 °C 10.8 °F /  -11.8 °C 30.12in /  1019.9hPa NW 7.1mph /  11.4km/h 20mph /  32.2km/h 38.2% 0.00in /  0mm 25 W/m2
15:09 33.4 °F /  0.8 °C 10.5 °F /  -11.9 °C 30.12in /  1019.9hPa WNW 8.2mph /  13.2km/h 20mph /  32.2km/h 38% 0.00in /  0mm 23 W/m2
15:14 33.2 °F /  0.7 °C 10.3 °F /  -12.1 °C 30.12in /  1019.9hPa NW 6.1mph /  9.8km/h 20mph /  32.2km/h 38% 0.00in /  0mm 21 W/m2
15:19 33 °F /  0.6 °C 10.4 °F /  -12 °C 30.12in /  1019.9hPa WNW 2.4mph /  3.9km/h 20mph /  32.2km/h 38.4% 0.00in /  0mm 21 W/m2
15:24 33 °F /  0.6 °C 11.1 °F /  -11.6 °C 30.12in /  1019.9hPa NW 5mph /  8km/h 20mph /  32.2km/h 39.7% 0.00in /  0mm 19 W/m2
15:29 33 °F /  0.6 °C 10.9 °F /  -11.7 °C 30.13in /  1020.2hPa WNW 3.7mph /  6km/h 20mph /  32.2km/h 39.3% 0.00in /  0mm 19 W/m2
15:34 32.9 °F /  0.5 °C 11.2 °F /  -11.6 °C 30.13in /  1020.2hPa NW 4.8mph /  7.7km/h 20mph /  32.2km/h 40% 0.00in /  0mm 16 W/m2
15:39 32.8 °F /  0.4 °C 11.1 °F /  -11.6 °C 30.13in /  1020.2hPa NW 6mph /  9.7km/h 15mph /  24.1km/h 40% 0.00in /  0mm 14 W/m2
15:44 32.7 °F /  0.4 °C 11 °F /  -11.7 °C 30.13in /  1020.2hPa NW 3.5mph /  5.6km/h 15mph /  24.1km/h 40% 0.00in /  0mm 12 W/m2
15:49 32.6 °F /  0.3 °C 11.2 °F /  -11.6 °C 30.13in /  1020.2hPa WNW 2.4mph /  3.9km/h 15mph /  24.1km/h 40.4% 0.00in /  0mm 12 W/m2
15:54 32.5 °F /  0.3 °C 11.4 °F /  -11.4 °C 30.14in /  1020.5hPa WNW 4mph /  6.4km/h 15mph /  24.1km/h 41% 0.00in /  0mm 11 W/m2
15:59 32.4 °F /  0.2 °C 11.6 °F /  -11.3 °C 30.14in /  1020.5hPa WNW 3.4mph /  5.5km/h 15mph /  24.1km/h 41.4% 0.00in /  0mm 9 W/m2
16:00 32.4 °F /  0.2 °C 12.9 °F /  -10.6 °C 30.13in /  1020.2hPa WNW 1mph /  1.6km/h 15mph /  24.1km/h 44% 0.00in /  0mm 7 W/m2
16:09 32.4 °F /  0.2 °C 14 °F /  -10 °C 30.14in /  1020.5hPa NW 4.1mph /  6.6km/h 9mph /  14.5km/h 46% 0.00in /  0mm 5 W/m2
16:14 32.5 °F /  0.3 °C 14.3 °F /  -9.8 °C 30.14in /  1020.5hPa WNW 1.1mph /  1.8km/h 9mph /  14.5km/h 46.6% 0.00in /  0mm 5 W/m2
16:19 32.6 °F /  0.3 °C 15.1 °F /  -9.4 °C 30.14in /  1020.5hPa NW 1.8mph /  2.9km/h 10mph /  16.1km/h 48.2% 0.00in /  0mm 0 W/m2
16:24 32.6 °F /  0.3 °C 14.7 °F /  -9.6 °C 30.14in /  1020.5hPa NW 0.3mph /  0.5km/h 10mph /  16.1km/h 47.2% 0.00in /  0mm 0 W/m2
16:29 32.5 °F /  0.3 °C 14 °F /  -10 °C 30.14in /  1020.5hPa WNW 1.8mph /  2.9km/h 10mph /  16.1km/h 45.9% 0.00in /  0mm 0 W/m2
16:34 32.4 °F /  0.2 °C 13 °F /  -10.6 °C 30.14in /  1020.5hPa NW 1.1mph /  1.8km/h 10mph /  16.1km/h 44.1% 0.00in /  0mm 0 W/m2
16:39 32.3 °F /  0.2 °C 13 °F /  -10.6 °C 30.14in /  1020.5hPa NW 0.7mph /  1.1km/h 6mph /  9.7km/h 44.2% 0.00in /  0mm 0 W/m2
16:44 32.3 °F /  0.2 °C 12.8 °F /  -10.7 °C 30.14in /  1020.5hPa NW 0.1mph /  0.2km/h 6mph /  9.7km/h 44% 0.00in /  0mm 0 W/m2
16:49 32.3 °F /  0.2 °C 13 °F /  -10.6 °C 30.14in /  1020.5hPa NW 0.2mph /  0.3km/h 6mph /  9.7km/h 44.3% 0.00in /  0mm 0 W/m2
16:54 32.2 °F /  0.1 °C 13.3 °F /  -10.4 °C 30.15in /  1020.9hPa NW 0.3mph /  0.5km/h 6mph /  9.7km/h 45% 0.00in /  0mm 0 W/m2
16:59 32.1 °F /  0.1 °C 13.1 °F /  -10.5 °C 30.15in /  1020.9hPa NW 0.4mph /  0.6km/h 6mph /  9.7km/h 44.8% 0.00in /  0mm 0 W/m2
17:04 32 °F /  0 °C 13.1 °F /  -10.5 °C 30.15in /  1020.9hPa NW 0.7mph /  1.1km/h 6mph /  9.7km/h 45% 0.00in /  0mm 0 W/m2
17:09 31.9 °F /  -0.1 °C 13 °F /  -10.6 °C 30.15in /  1020.9hPa NW 0.3mph /  0.5km/h 5mph /  8km/h 45% 0.00in /  0mm 0 W/m2
17:14 31.7 °F /  -0.2 °C 12.8 °F /  -10.7 °C 30.16in /  1021.2hPa NW 0.1mph /  0.2km/h 5mph /  8km/h 45% 0.00in /  0mm 0 W/m2
17:19 31.5 °F /  -0.3 °C 12.6 °F /  -10.8 °C 30.16in /  1021.2hPa NW 0.1mph /  0.2km/h 5mph /  8km/h 45% 0.00in /  0mm 0 W/m2
17:24 31.2 °F /  -0.4 °C 12.7 °F /  -10.7 °C 30.16in /  1021.2hPa NW 0.3mph /  0.5km/h 5mph /  8km/h 45.6% 0.00in /  0mm 0 W/m2
17:29 31 °F /  -0.6 °C 12.7 °F /  -10.7 °C 30.16in /  1021.2hPa NW 0.1mph /  0.2km/h 5mph /  8km/h 46% 0.00in /  0mm 0 W/m2
17:34 30.8 °F /  -0.7 °C 12.5 °F /  -10.8 °C 30.16in /  1021.2hPa Calm   5mph /  8km/h 46.1% 0.00in /  0mm 0 W/m2
17:39 30.7 °F /  -0.7 °C 12.6 °F /  -10.8 °C 30.16in /  1021.2hPa Calm     46.5% 0.00in /  0mm 0 W/m2
17:44 30.5 °F /  -0.8 °C 12.7 °F /  -10.7 °C 30.16in /  1021.2hPa Calm     47% 0.00in /  0mm 0 W/m2
17:49 30.3 °F /  -0.9 °C 12.6 °F /  -10.8 °C 30.16in /  1021.2hPa Calm     47.1% 0.00in /  0mm 0 W/m2
17:54 30.1 °F /  -1.1 °C 13 °F /  -10.6 °C 30.16in /  1021.2hPa Calm     48.5% 0.00in /  0mm 0 W/m2
17:59 29.9 °F /  -1.2 °C 13.1 °F /  -10.5 °C 30.16in /  1021.2hPa Calm     49% 0.00in /  0mm 0 W/m2
18:04 29.8 °F /  -1.2 °C 13 °F /  -10.6 °C 30.16in /  1021.2hPa Calm   1mph /  1.6km/h 49% 0.00in /  0mm 0 W/m2
18:09 29.6 °F /  -1.3 °C 13 °F /  -10.6 °C 30.17in /  1021.6hPa NW 0.1mph /  0.2km/h 1mph /  1.6km/h 49.4% 0.00in /  0mm 0 W/m2
18:14 29.5 °F /  -1.4 °C 13.2 °F /  -10.4 °C 30.17in /  1021.6hPa Calm   1mph /  1.6km/h 50% 0.00in /  0mm 0 W/m2
18:19 29.4 °F /  -1.4 °C 13.1 °F /  -10.5 °C 30.16in /  1021.2hPa NW 0.2mph /  0.3km/h 2mph /  3.2km/h 50% 0.00in /  0mm 0 W/m2
18:24 29.4 °F /  -1.4 °C 13.1 °F /  -10.5 °C 30.17in /  1021.6hPa NW 0.1mph /  0.2km/h 2mph /  3.2km/h 50.1% 0.00in /  0mm 0 W/m2
18:29 29.4 °F /  -1.4 °C 13.5 °F /  -10.3 °C 30.17in /  1021.6hPa NW 0.2mph /  0.3km/h 2mph /  3.2km/h 51% 0.00in /  0mm 0 W/m2
18:34 29.5 °F /  -1.4 °C 13.8 °F /  -10.1 °C 30.17in /  1021.6hPa NW 0.4mph /  0.6km/h 3mph /  4.8km/h 51.4% 0.00in /  0mm 0 W/m2
18:39 29.6 °F /  -1.3 °C 14.1 °F /  -9.9 °C 30.17in /  1021.6hPa NW 0.5mph /  0.8km/h 3mph /  4.8km/h 52% 0.00in /  0mm 0 W/m2
18:44 29.7 °F /  -1.3 °C 14.2 °F /  -9.9 °C 30.17in /  1021.6hPa NW 0.2mph /  0.3km/h 3mph /  4.8km/h 51.8% 0.00in /  0mm 0 W/m2
18:49 29.8 °F /  -1.2 °C 14.1 °F /  -9.9 °C 30.17in /  1021.6hPa NW 0.4mph /  0.6km/h 4mph /  6.4km/h 51.5% 0.00in /  0mm 0 W/m2
18:54 29.8 °F /  -1.2 °C 14.3 °F /  -9.8 °C 30.17in /  1021.6hPa NW 0.2mph /  0.3km/h 4mph /  6.4km/h 52% 0.00in /  0mm 0 W/m2
18:59 29.8 °F /  -1.2 °C 13.9 °F /  -10.1 °C 30.17in /  1021.6hPa NW 0.1mph /  0.2km/h 4mph /  6.4km/h 51% 0.00in /  0mm 0 W/m2
19:04 29.8 °F /  -1.2 °C 13.9 °F /  -10.1 °C 30.17in /  1021.6hPa NW 0.1mph /  0.2km/h 4mph /  6.4km/h 51% 0.00in /  0mm 0 W/m2
19:09 29.7 °F /  -1.3 °C 13.9 °F /  -10.1 °C 30.17in /  1021.6hPa NW 0.2mph /  0.3km/h 2mph /  3.2km/h 51.1% 0.00in /  0mm 0 W/m2
19:14 29.7 °F /  -1.3 °C 14.2 °F /  -9.9 °C 30.17in /  1021.6hPa NW 0.2mph /  0.3km/h 2mph /  3.2km/h 52% 0.00in /  0mm 0 W/m2
19:19 29.6 °F /  -1.3 °C 14.2 °F /  -9.9 °C 30.17in /  1021.6hPa NW 0.4mph /  0.6km/h 3mph /  4.8km/h 52% 0.00in /  0mm 0 W/m2
19:24 29.6 °F /  -1.3 °C 14.2 °F /  -9.9 °C 30.17in /  1021.6hPa Calm   3mph /  4.8km/h 52% 0.00in /  0mm 0 W/m2
19:29 29.5 °F /  -1.4 °C 14.1 °F /  -9.9 °C 30.17in /  1021.6hPa NW 0.4mph /  0.6km/h 3mph /  4.8km/h 52% 0.00in /  0mm 0 W/m2
19:34 29.4 °F /  -1.4 °C 14 °F /  -10 °C 30.17in /  1021.6hPa NW 0.5mph /  0.8km/h 3mph /  4.8km/h 52% 0.00in /  0mm 0 W/m2
19:39 29.3 °F /  -1.5 °C 13.9 °F /  -10.1 °C 30.17in /  1021.6hPa NW 0.3mph /  0.5km/h 3mph /  4.8km/h 52% 0.00in /  0mm 0 W/m2
19:44 29.3 °F /  -1.5 °C 13.8 °F /  -10.1 °C 30.17in /  1021.6hPa Calm   3mph /  4.8km/h 52% 0.00in /  0mm 0 W/m2
19:49 29.2 °F /  -1.6 °C 13.8 °F /  -10.1 °C 30.17in /  1021.6hPa NW 0.2mph /  0.3km/h 3mph /  4.8km/h 52% 0.00in /  0mm 0 W/m2
19:54 29.1 °F /  -1.6 °C 13.9 °F /  -10.1 °C 30.17in /  1021.6hPa Calm   3mph /  4.8km/h 52.6% 0.00in /  0mm 0 W/m2
19:59 29 °F /  -1.7 °C 14 °F /  -10 °C 30.17in /  1021.6hPa Calm   3mph /  4.8km/h 53% 0.00in /  0mm 0 W/m2
20:00 28.9 °F /  -1.7 °C 13.9 °F /  -10.1 °C 30.16in /  1021.2hPa Calm   3mph /  4.8km/h 53% 0.00in /  0mm 0 W/m2
20:09 28.7 °F /  -1.8 °C 13.7 °F /  -10.2 °C 30.17in /  1021.6hPa NW 0.1mph /  0.2km/h 1mph /  1.6km/h 53.1% 0.00in /  0mm 0 W/m2
20:14 28.6 °F /  -1.9 °C 13.6 °F /  -10.2 °C 30.17in /  1021.6hPa Calm   1mph /  1.6km/h 53% 0.00in /  0mm 0 W/m2
20:19 28.5 °F /  -1.9 °C 13.9 °F /  -10.1 °C 30.17in /  1021.6hPa Calm   1mph /  1.6km/h 53.8% 0.00in /  0mm 0 W/m2
20:24 28.3 °F /  -2.1 °C 14.1 °F /  -9.9 °C 30.16in /  1021.2hPa Calm   1mph /  1.6km/h 54.7% 0.00in /  0mm 0 W/m2
20:29 28.2 °F /  -2.1 °C 14.1 °F /  -9.9 °C 30.17in /  1021.6hPa Calm   1mph /  1.6km/h 55% 0.00in /  0mm 0 W/m2
20:34 28.1 °F /  -2.2 °C 14 °F /  -10 °C 30.17in /  1021.6hPa Calm   1mph /  1.6km/h 55% 0.00in /  0mm 0 W/m2
20:39 28 °F /  -2.2 °C 13.9 °F /  -10.1 °C 30.17in /  1021.6hPa Calm     55% 0.00in /  0mm 0 W/m2
20:44 27.9 °F /  -2.3 °C 14.1 °F /  -9.9 °C 30.17in /  1021.6hPa Calm     55.6% 0.00in /  0mm 0 W/m2
20:49 27.8 °F /  -2.3 °C 14.5 °F /  -9.7 °C 30.17in /  1021.6hPa Calm   1mph /  1.6km/h 56.9% 0.00in /  0mm 0 W/m2
20:54 27.8 °F /  -2.3 °C 13.7 °F /  -10.2 °C 30.17in /  1021.6hPa Calm   1mph /  1.6km/h 55% 0.00in /  0mm 0 W/m2
20:59 27.7 °F /  -2.4 °C 13.2 °F /  -10.4 °C 30.17in /  1021.6hPa Calm   2mph /  3.2km/h 54% 0.00in /  0mm 0 W/m2
21:04 27.7 °F /  -2.4 °C 13.2 °F /  -10.4 °C 30.17in /  1021.6hPa NW 0.2mph /  0.3km/h 2mph /  3.2km/h 54% 0.00in /  0mm 0 W/m2
21:09 27.6 °F /  -2.4 °C 13.1 °F /  -10.5 °C 30.17in /  1021.6hPa NW 0.1mph /  0.2km/h 2mph /  3.2km/h 54% 0.00in /  0mm 0 W/m2
21:14 27.6 °F /  -2.4 °C 12.6 °F /  -10.8 °C 30.17in /  1021.6hPa NW 0.4mph /  0.6km/h 3mph /  4.8km/h 52.7% 0.00in /  0mm 0 W/m2
21:19 27.7 °F /  -2.4 °C 12.5 °F /  -10.8 °C 30.17in /  1021.6hPa NW 0.2mph /  0.3km/h 3mph /  4.8km/h 52.5% 0.00in /  0mm 0 W/m2
21:24 27.8 °F /  -2.3 °C 12.9 °F /  -10.6 °C 30.16in /  1021.2hPa NW 0.1mph /  0.2km/h 3mph /  4.8km/h 53.1% 0.00in /  0mm 0 W/m2
21:29 27.8 °F /  -2.3 °C 13 °F /  -10.6 °C 30.16in /  1021.2hPa Calm   3mph /  4.8km/h 53.2% 0.00in /  0mm 0 W/m2
21:34 27.9 °F /  -2.3 °C 13 °F /  -10.6 °C 30.16in /  1021.2hPa Calm   3mph /  4.8km/h 53% 0.00in /  0mm 0 W/m2
21:39 28 °F /  -2.2 °C 12.9 °F /  -10.6 °C 30.16in /  1021.2hPa Calm     52.5% 0.00in /  0mm 0 W/m2
21:44 28.1 °F /  -2.2 °C 13.4 °F /  -10.3 °C 30.16in /  1021.2hPa Calm     53.6% 0.00in /  0mm 0 W/m2
21:49 28.2 °F /  -2.1 °C 14.1 °F /  -9.9 °C 30.15in /  1020.9hPa Calm     55% 0.00in /  0mm 0 W/m2
21:54 28.2 °F /  -2.1 °C 14.3 °F /  -9.8 °C 30.15in /  1020.9hPa Calm     55.3% 0.00in /  0mm 0 W/m2
21:59 28.3 °F /  -2.1 °C 14.4 °F /  -9.8 °C 30.15in /  1020.9hPa Calm     55.5% 0.00in /  0mm 0 W/m2
22:04 28.4 °F /  -2 °C 13.9 °F /  -10.1 °C 30.15in /  1020.9hPa Calm     54.2% 0.00in /  0mm 0 W/m2
22:09 28.4 °F /  -2 °C 13.8 °F /  -10.1 °C 30.15in /  1020.9hPa Calm     53.8% 0.00in /  0mm 0 W/m2
22:14 28.5 °F /  -1.9 °C 13.6 °F /  -10.2 °C 30.15in /  1020.9hPa Calm     53.1% 0.00in /  0mm 0 W/m2
22:19 28.6 °F /  -1.9 °C 13.8 °F /  -10.1 °C 30.15in /  1020.9hPa Calm     53.3% 0.00in /  0mm 0 W/m2
22:24 28.7 °F /  -1.8 °C 14.2 °F /  -9.9 °C 30.15in /  1020.9hPa Calm     54% 0.00in /  0mm 0 W/m2
22:29 28.7 °F /  -1.8 °C 14.2 °F /  -9.9 °C 30.14in /  1020.5hPa Calm     54% 0.00in /  0mm 0 W/m2
22:34 28.7 °F /  -1.8 °C 13.3 °F /  -10.4 °C 30.14in /  1020.5hPa NW 0.1mph /  0.2km/h 2mph /  3.2km/h 52.1% 0.00in /  0mm 0 W/m2
22:38 28.7 °F /  -1.8 °C 13 °F /  -10.6 °C 30.14in /  1020.5hPa Calm   2mph /  3.2km/h 51.3% 0.00in /  0mm 0 W/m2
Hartford County Weather
Compliments of Weather Underground - 2 mb